Time;durP1;ratioP1;P1;durP2;ratioP2;P2;SDS_P1;SDS_P2;PMS_P1;PMS_P2;Temp;Humidity;BMP_temperature;BMP_pressure;BME280_temperature;BME280_humidity;BME280_pressure;Samples;Min_cycle;Max_cycle;Signal;HPM_P1;HPM_P2
2022/04/05 00:01:00;;;;;;;8.77;1.90;;;;;;;;;;5071609;28;20055;-66
2022/04/05 00:03:27;;;;;;;6.68;1.45;;;;;;;;;;5071418;28;20036;-66
2022/04/05 00:05:53;;;;;;;5.07;1.50;;;;;;;;;;5071827;28;20210;-65
2022/04/05 00:08:19;;;;;;;5.03;1.38;;;;;;;;;;5071066;28;20160;-66
2022/04/05 00:10:45;;;;;;;3.83;1.60;;;;;;;;;;5071363;28;20227;-66
2022/04/05 00:13:11;;;;;;;5.38;1.65;;;;;;;;;;5071209;28;20053;-65
2022/04/05 00:15:37;;;;;;;6.40;1.80;;;;;;;;;;5071217;28;20045;-65
2022/04/05 00:18:03;;;;;;;4.88;1.45;;;;;;;;;;5071272;28;20148;-66
2022/04/05 00:20:29;;;;;;;7.07;1.60;;;;;;;;;;5071310;28;20051;-66
2022/04/05 00:22:58;;;;;;;5.97;1.42;;;;;;;;;;5071090;28;20502;-65
2022/04/05 00:25:24;;;;;;;7.43;1.92;;;;;;;;;;5071353;28;20097;-66
2022/04/05 00:27:50;;;;;;;3.63;1.10;;;;;;;;;;5071676;28;20080;-67
2022/04/05 00:30:16;;;;;;;8.02;1.55;;;;;;;;;;5071320;28;20163;-66
2022/04/05 00:32:43;;;;;;;4.30;0.90;;;;;;;;;;5069783;28;20036;-66
2022/04/05 00:35:09;;;;;;;8.13;1.73;;;;;;;;;;5070576;28;20060;-66
2022/04/05 00:37:36;;;;;;;7.47;1.83;;;;;;;;;;5070584;28;20120;-66
2022/04/05 00:40:04;;;;;;;5.68;1.48;;;;;;;;;;5070574;28;20052;-66
2022/04/05 00:42:30;;;;;;;5.15;1.20;;;;;;;;;;5069627;28;20541;-66
2022/04/05 00:44:56;;;;;;;5.15;1.10;;;;;;;;;;5070444;28;20131;-66
2022/04/05 00:47:23;;;;;;;5.10;1.08;;;;;;;;;;5069713;28;20411;-66
2022/04/05 00:49:50;;;;;;;6.47;1.67;;;;;;;;;;5062760;28;20086;-65
2022/04/05 00:52:17;;;;;;;5.53;1.38;;;;;;;;;;5070078;28;20044;-65
2022/04/05 00:54:45;;;;;;;4.78;1.30;;;;;;;;;;5068533;28;20075;-65
2022/04/05 00:57:12;;;;;;;6.70;1.77;;;;;;;;;;5070084;28;20037;-65
2022/04/05 00:59:44;;;;;;;6.63;1.35;;;;;;;;;;5069934;28;20037;-66
2022/04/05 01:02:16;;;;;;;6.95;1.50;;;;;;;;;;5064943;28;20048;-66
2022/04/05 01:04:43;;;;;;;3.75;1.20;;;;;;;;;;5070172;28;20052;-65
2022/04/05 01:07:10;;;;;;;4.85;1.48;;;;;;;;;;5068992;28;20133;-66
2022/04/05 01:09:37;;;;;;;5.82;1.30;;;;;;;;;;5069743;28;20102;-66
2022/04/05 01:12:04;;;;;;;4.70;1.95;;;;;;;;;;5069753;28;20041;-66
2022/04/05 01:14:30;;;;;;;5.22;1.02;;;;;;;;;;5069788;28;20129;-68
2022/04/05 01:16:56;;;;;;;5.57;1.77;;;;;;;;;;5069897;28;20121;-67
2022/04/05 01:19:22;;;;;;;5.95;1.20;;;;;;;;;;5069159;28;20162;-67
2022/04/05 01:21:48;;;;;;;6.85;1.63;;;;;;;;;;5069847;28;20108;-67
2022/04/05 01:24:14;;;;;;;7.55;1.45;;;;;;;;;;5069074;28;20497;-67
2022/04/05 01:26:44;;;;;;;4.93;1.15;;;;;;;;;;5069670;28;20048;-67
2022/04/05 01:29:11;;;;;;;4.82;1.10;;;;;;;;;;5069149;28;20037;-67
2022/04/05 01:31:38;;;;;;;5.65;1.20;;;;;;;;;;5068228;28;20462;-66
2022/04/05 01:34:04;;;;;;;3.47;1.33;;;;;;;;;;5069331;28;20505;-66
2022/04/05 01:36:30;;;;;;;5.53;1.20;;;;;;;;;;5069373;28;20135;-66
2022/04/05 01:38:56;;;;;;;5.63;1.20;;;;;;;;;;5069860;28;20044;-66
2022/04/05 01:41:22;;;;;;;7.15;1.30;;;;;;;;;;5069117;28;20051;-67
2022/04/05 01:43:48;;;;;;;10.25;1.80;;;;;;;;;;5069670;28;20044;-66
2022/04/05 01:46:14;;;;;;;12.43;1.30;;;;;;;;;;5069610;28;20050;-66
2022/04/05 01:48:40;;;;;;;3.95;1.15;;;;;;;;;;5069576;28;20048;-66
2022/04/05 01:51:06;;;;;;;6.72;1.50;;;;;;;;;;5068249;28;20035;-66
2022/04/05 01:53:32;;;;;;;5.35;1.20;;;;;;;;;;5068485;28;20040;-66
2022/04/05 01:55:58;;;;;;;9.07;1.40;;;;;;;;;;5068374;28;20066;-66
2022/04/05 01:58:25;;;;;;;3.60;1.00;;;;;;;;;;5068002;28;20135;-66
2022/04/05 02:00:51;;;;;;;4.25;1.48;;;;;;;;;;5068815;28;20067;-67
2022/04/05 02:03:17;;;;;;;6.32;1.00;;;;;;;;;;5068577;28;20079;-66
2022/04/05 02:05:46;;;;;;;5.65;1.10;;;;;;;;;;5068763;28;20037;-66
2022/04/05 02:08:13;;;;;;;8.43;1.38;;;;;;;;;;5068696;28;20487;-65
2022/04/05 02:10:39;;;;;;;6.47;1.10;;;;;;;;;;5068255;28;20040;-65
2022/04/05 02:13:05;;;;;;;5.40;1.45;;;;;;;;;;5068234;28;20044;-65
2022/04/05 02:15:31;;;;;;;6.88;1.30;;;;;;;;;;5068499;28;20124;-66
2022/04/05 02:17:57;;;;;;;6.97;1.80;;;;;;;;;;5068353;28;20486;-65
2022/04/05 02:20:23;;;;;;;5.80;1.40;;;;;;;;;;5067997;28;20056;-66
2022/04/05 02:22:50;;;;;;;8.57;1.40;;;;;;;;;;5068534;28;20544;-66
2022/04/05 02:25:17;;;;;;;5.97;1.40;;;;;;;;;;5068749;28;20052;-65
2022/04/05 02:27:43;;;;;;;5.57;1.25;;;;;;;;;;5068631;28;20051;-66
2022/04/05 02:30:10;;;;;;;5.72;1.10;;;;;;;;;;5068223;28;20499;-66
2022/04/05 02:32:36;;;;;;;4.28;1.20;;;;;;;;;;5067637;28;20083;-66
2022/04/05 02:35:03;;;;;;;7.55;1.27;;;;;;;;;;5068342;28;20530;-65
2022/04/05 02:37:29;;;;;;;5.43;0.80;;;;;;;;;;5068126;28;20048;-65
2022/04/05 02:39:55;;;;;;;5.53;1.38;;;;;;;;;;5068256;28;20036;-66
2022/04/05 02:42:21;;;;;;;4.65;1.05;;;;;;;;;;5068049;28;20047;-66
2022/04/05 02:44:47;;;;;;;7.25;1.20;;;;;;;;;;5069008;28;20502;-66
2022/04/05 02:47:15;;;;;;;8.95;1.52;;;;;;;;;;5068848;28;20438;-66
2022/04/05 02:49:41;;;;;;;5.32;1.15;;;;;;;;;;5068870;28;20448;-66
2022/04/05 02:52:07;;;;;;;7.70;1.45;;;;;;;;;;5068005;28;20439;-67
2022/04/05 02:54:33;;;;;;;5.57;1.58;;;;;;;;;;5068963;28;20040;-66
2022/04/05 02:56:59;;;;;;;5.85;1.00;;;;;;;;;;5068504;28;20733;-66
2022/04/05 02:59:26;;;;;;;7.80;1.70;;;;;;;;;;5069007;28;20084;-66
2022/04/05 03:01:52;;;;;;;7.32;1.55;;;;;;;;;;5067985;28;20040;-66
2022/04/05 03:04:18;;;;;;;9.38;1.40;;;;;;;;;;5068439;28;20050;-66
2022/04/05 03:06:44;;;;;;;6.55;1.60;;;;;;;;;;5068623;28;20051;-66
2022/04/05 03:09:10;;;;;;;7.35;1.38;;;;;;;;;;5067818;28;20531;-66
2022/04/05 03:11:36;;;;;;;9.13;1.42;;;;;;;;;;5068331;28;20158;-66
2022/04/05 03:14:02;;;;;;;5.57;1.17;;;;;;;;;;5067772;28;20199;-66
2022/04/05 03:16:28;;;;;;;4.57;1.30;;;;;;;;;;5067421;28;20060;-66
2022/04/05 03:18:54;;;;;;;6.68;1.77;;;;;;;;;;5069709;28;20482;-66
2022/04/05 03:21:20;;;;;;;6.63;1.30;;;;;;;;;;5071796;28;20059;-66
2022/04/05 03:23:46;;;;;;;5.15;1.27;;;;;;;;;;5071928;28;20040;-66
2022/04/05 03:26:12;;;;;;;6.25;1.20;;;;;;;;;;5071370;28;20044;-66
2022/04/05 03:28:38;;;;;;;4.57;1.42;;;;;;;;;;5054403;28;20079;-66
2022/04/05 03:31:04;;;;;;;6.97;1.40;;;;;;;;;;5071673;28;20055;-66
2022/04/05 03:33:30;;;;;;;4.85;1.30;;;;;;;;;;5072041;28;20036;-65
2022/04/05 03:35:56;;;;;;;6.68;1.20;;;;;;;;;;5071847;28;20060;-65
2022/04/05 03:38:23;;;;;;;7.15;1.48;;;;;;;;;;5071065;28;20472;-66
2022/04/05 03:40:49;;;;;;;6.35;1.25;;;;;;;;;;5071578;28;20453;-66
2022/04/05 03:43:15;;;;;;;4.88;1.45;;;;;;;;;;5072033;28;20045;-66
2022/04/05 03:45:41;;;;;;;7.82;1.33;;;;;;;;;;5070643;28;20131;-66
2022/04/05 03:48:07;;;;;;;20.00;1.63;;;;;;;;;;5071523;28;20476;-66
2022/04/05 03:50:34;;;;;;;7.63;1.60;;;;;;;;;;5071315;28;20040;-66
2022/04/05 03:53:00;;;;;;;8.77;1.67;;;;;;;;;;5071789;28;20056;-66
2022/04/05 03:55:26;;;;;;;7.55;1.65;;;;;;;;;;5070958;28;20448;-66
2022/04/05 03:57:52;;;;;;;5.63;1.20;;;;;;;;;;5071951;28;20040;-66
2022/04/05 04:00:19;;;;;;;9.82;1.52;;;;;;;;;;5070854;28;20168;-65
2022/04/05 04:02:45;;;;;;;8.15;1.30;;;;;;;;;;5071607;28;20055;-65
2022/04/05 04:05:16;;;;;;;6.57;1.00;;;;;;;;;;5071745;28;20040;-65
2022/04/05 04:07:43;;;;;;;6.80;1.60;;;;;;;;;;5071739;28;20055;-65
2022/04/05 04:10:09;;;;;;;6.93;1.30;;;;;;;;;;5071836;28;20067;-65
2022/04/05 04:12:35;;;;;;;7.75;1.58;;;;;;;;;;5069661;28;20041;-65
2022/04/05 04:15:01;;;;;;;6.97;1.10;;;;;;;;;;5070023;28;20040;-65
2022/04/05 04:17:28;;;;;;;6.70;1.20;;;;;;;;;;5069520;28;20044;-66
2022/04/05 04:19:54;;;;;;;4.68;1.10;;;;;;;;;;5070737;28;20048;-66
2022/04/05 04:22:20;;;;;;;6.13;1.25;;;;;;;;;;5071366;28;20044;-67
2022/04/05 04:24:46;;;;;;;5.78;1.08;;;;;;;;;;5071474;28;20048;-67
2022/04/05 04:27:12;;;;;;;5.57;1.20;;;;;;;;;;5070724;28;20164;-66
2022/04/05 04:29:38;;;;;;;7.18;1.05;;;;;;;;;;5070700;28;20053;-66
2022/04/05 04:32:04;;;;;;;6.80;1.88;;;;;;;;;;5071454;28;20135;-66
2022/04/05 04:34:31;;;;;;;6.63;1.30;;;;;;;;;;5071023;28;20075;-66
2022/04/05 04:36:57;;;;;;;6.30;1.45;;;;;;;;;;5070297;28;20546;-66
2022/04/05 04:39:25;;;;;;;6.13;1.20;;;;;;;;;;5070882;28;20072;-66
2022/04/05 04:41:51;;;;;;;8.50;1.30;;;;;;;;;;5071393;28;20143;-66
2022/04/05 04:44:18;;;;;;;6.68;1.63;;;;;;;;;;5070922;28;20052;-66
2022/04/05 04:46:44;;;;;;;6.30;1.55;;;;;;;;;;5069629;28;20041;-65
2022/04/05 04:49:10;;;;;;;3.00;0.90;;;;;;;;;;5071135;28;20099;-65
2022/04/05 04:51:36;;;;;;;8.88;1.52;;;;;;;;;;5070804;28;20060;-65
2022/04/05 04:54:03;;;;;;;7.97;1.30;;;;;;;;;;5070512;28;20429;-65
2022/04/05 04:56:29;;;;;;;7.93;1.27;;;;;;;;;;5052957;28;20092;-65
2022/04/05 04:58:55;;;;;;;6.25;1.55;;;;;;;;;;5069786;28;20079;-65
2022/04/05 05:01:21;;;;;;;8.43;1.40;;;;;;;;;;5056313;28;20044;-66
2022/04/05 05:03:47;;;;;;;6.15;1.40;;;;;;;;;;5069810;28;20071;-66
2022/04/05 05:06:13;;;;;;;6.50;1.08;;;;;;;;;;5069721;28;20055;-65
2022/04/05 05:08:39;;;;;;;6.20;1.42;;;;;;;;;;5060324;28;20517;-65
2022/04/05 05:11:05;;;;;;;4.03;0.75;;;;;;;;;;5058604;28;20505;-66
2022/04/05 05:13:31;;;;;;;7.65;1.40;;;;;;;;;;5069689;28;20123;-66
2022/04/05 05:15:58;;;;;;;6.90;1.00;;;;;;;;;;5070781;28;20045;-65
2022/04/05 05:18:24;;;;;;;8.93;1.10;;;;;;;;;;5070279;28;20048;-65
2022/04/05 05:20:50;;;;;;;6.68;1.73;;;;;;;;;;5069494;28;20399;-65
2022/04/05 05:23:16;;;;;;;7.18;1.17;;;;;;;;;;5070621;28;20112;-65
2022/04/05 05:25:42;;;;;;;5.45;1.20;;;;;;;;;;5070505;28;20041;-66
2022/04/05 05:28:08;;;;;;;7.20;1.45;;;;;;;;;;5069761;28;20135;-65
2022/04/05 05:30:34;;;;;;;6.97;1.15;;;;;;;;;;5069940;28;20036;-65
2022/04/05 05:33:01;;;;;;;8.15;1.45;;;;;;;;;;5070898;28;20051;-64
2022/04/05 05:35:27;;;;;;;15.32;1.50;;;;;;;;;;5069465;28;20059;-65
2022/04/05 05:37:53;;;;;;;10.77;1.42;;;;;;;;;;5069398;28;20495;-65
2022/04/05 05:40:19;;;;;;;6.18;1.20;;;;;;;;;;5069392;28;20403;-66
2022/04/05 05:42:49;;;;;;;10.55;1.23;;;;;;;;;;5068217;28;20050;-66
2022/04/05 05:45:15;;;;;;;4.60;1.08;;;;;;;;;;5065184;28;20036;-66
2022/04/05 05:47:41;;;;;;;4.07;0.85;;;;;;;;;;5067643;28;20040;-66
2022/04/05 05:50:10;;;;;;;4.38;1.00;;;;;;;;;;5067257;28;20042;-66
2022/04/05 05:52:36;;;;;;;9.38;1.23;;;;;;;;;;5067530;28;20055;-67
2022/04/05 05:55:02;;;;;;;2.67;0.93;;;;;;;;;;5065241;28;20044;-66
2022/04/05 05:57:28;;;;;;;5.65;1.10;;;;;;;;;;5067026;28;20522;-66
2022/04/05 05:59:54;;;;;;;8.13;1.48;;;;;;;;;;5066886;28;20040;-66
2022/04/05 06:02:20;;;;;;;4.65;0.95;;;;;;;;;;5066730;28;20069;-66
2022/04/05 06:04:46;;;;;;;5.38;1.05;;;;;;;;;;5067106;28;20558;-66
2022/04/05 06:07:12;;;;;;;4.40;1.02;;;;;;;;;;5066520;28;20829;-67
2022/04/05 06:09:38;;;;;;;6.13;1.30;;;;;;;;;;5066974;28;20055;-66
2022/04/05 06:12:05;;;;;;;3.60;1.00;;;;;;;;;;5066538;28;20408;-65
2022/04/05 06:14:31;;;;;;;4.72;1.00;;;;;;;;;;5066425;28;20040;-65
2022/04/05 06:16:57;;;;;;;3.75;1.10;;;;;;;;;;5066521;28;20465;-65
2022/04/05 06:19:23;;;;;;;2.72;0.80;;;;;;;;;;5066009;28;20441;-65
2022/04/05 06:21:49;;;;;;;4.68;1.42;;;;;;;;;;5066471;28;20039;-65
2022/04/05 06:24:15;;;;;;;4.57;0.88;;;;;;;;;;5066434;28;20128;-65
2022/04/05 06:26:41;;;;;;;4.95;0.82;;;;;;;;;;5064239;28;20083;-65
2022/04/05 06:29:07;;;;;;;3.88;0.90;;;;;;;;;;5056518;28;20072;-66
2022/04/05 06:31:33;;;;;;;4.93;1.42;;;;;;;;;;5066463;28;20037;-65
2022/04/05 06:34:02;;;;;;;5.15;1.10;;;;;;;;;;5065785;28;20423;-65
2022/04/05 06:36:29;;;;;;;3.10;0.77;;;;;;;;;;5054589;28;20082;-66
2022/04/05 06:38:55;;;;;;;3.45;0.82;;;;;;;;;;5065695;28;20102;-66
2022/04/05 06:41:21;;;;;;;3.38;0.88;;;;;;;;;;5066503;28;20049;-66
2022/04/05 06:43:47;;;;;;;6.18;1.20;;;;;;;;;;5066198;28;20505;-66
2022/04/05 06:46:17;;;;;;;4.68;1.45;;;;;;;;;;5065983;28;20045;-65
2022/04/05 06:48:43;;;;;;;2.90;0.75;;;;;;;;;;5066097;28;20068;-66
2022/04/05 06:51:09;;;;;;;3.13;0.70;;;;;;;;;;5066383;28;20040;-66
2022/04/05 06:53:35;;;;;;;4.15;0.57;;;;;;;;;;5065016;28;20047;-66
2022/04/05 06:56:01;;;;;;;5.50;1.10;;;;;;;;;;5066205;28;20036;-67
2022/04/05 06:58:27;;;;;;;4.07;1.10;;;;;;;;;;5065909;28;20044;-66
2022/04/05 07:00:53;;;;;;;3.20;0.70;;;;;;;;;;5066185;28;20042;-64
2022/04/05 07:03:19;;;;;;;3.03;0.70;;;;;;;;;;5065668;28;20059;-66
2022/04/05 07:05:45;;;;;;;10.35;1.10;;;;;;;;;;5066136;28;20155;-66
2022/04/05 07:08:11;;;;;;;8.90;1.10;;;;;;;;;;5066507;28;20574;-65
2022/04/05 07:10:37;;;;;;;5.60;1.13;;;;;;;;;;5055989;28;20059;-67
2022/04/05 07:13:04;;;;;;;6.80;1.20;;;;;;;;;;5065279;28;20075;-66
2022/04/05 07:15:30;;;;;;;5.07;1.13;;;;;;;;;;5065740;28;20090;-66
2022/04/05 07:17:56;;;;;;;4.93;0.90;;;;;;;;;;5066566;28;20044;-66
2022/04/05 07:20:22;;;;;;;5.22;1.50;;;;;;;;;;5065920;28;20163;-65
2022/04/05 07:22:49;;;;;;;8.32;1.40;;;;;;;;;;5065373;28;20064;-65
2022/04/05 07:25:16;;;;;;;3.78;1.08;;;;;;;;;;5066856;28;20150;-65
2022/04/05 07:27:44;;;;;;;5.63;1.50;;;;;;;;;;5066972;28;20147;-67
2022/04/05 07:30:10;;;;;;;9.32;1.25;;;;;;;;;;5066200;28;20041;-66
2022/04/05 07:32:37;;;;;;;5.32;1.13;;;;;;;;;;5066579;28;20044;-66
2022/04/05 07:35:04;;;;;;;5.43;1.00;;;;;;;;;;5066109;28;20057;-67
2022/04/05 07:37:30;;;;;;;5.63;1.42;;;;;;;;;;5066096;28;20129;-65
2022/04/05 07:39:58;;;;;;;8.48;1.30;;;;;;;;;;5066183;28;20044;-65
2022/04/05 07:42:24;;;;;;;6.30;1.00;;;;;;;;;;5056699;28;20298;-65
2022/04/05 07:44:50;;;;;;;7.85;1.40;;;;;;;;;;5063793;28;20435;-66
2022/04/05 07:47:17;;;;;;;7.18;1.60;;;;;;;;;;5065790;28;20532;-65
2022/04/05 07:49:43;;;;;;;6.30;1.63;;;;;;;;;;5065838;28;20044;-64
2022/04/05 07:52:09;;;;;;;9.23;1.77;;;;;;;;;;5065979;28;20407;-65
2022/04/05 07:54:35;;;;;;;7.85;1.95;;;;;;;;;;5065613;28;20101;-65
2022/04/05 07:57:02;;;;;;;6.90;1.80;;;;;;;;;;5065956;28;20081;-65
2022/04/05 07:59:28;;;;;;;8.55;2.38;;;;;;;;;;5066098;28;20060;-66
2022/04/05 08:01:55;;;;;;;8.38;2.60;;;;;;;;;;5064026;28;20056;-66
2022/04/05 08:04:21;;;;;;;10.07;2.28;;;;;;;;;;5067230;28;20083;-66
2022/04/05 08:06:47;;;;;;;9.48;2.45;;;;;;;;;;5069870;28;20090;-66
2022/04/05 08:09:13;;;;;;;11.40;2.20;;;;;;;;;;5069716;28;20045;-66
2022/04/05 08:11:39;;;;;;;8.10;2.30;;;;;;;;;;5069702;28;20097;-65
2022/04/05 08:14:05;;;;;;;8.82;3.03;;;;;;;;;;5069717;28;20036;-65
2022/04/05 08:16:31;;;;;;;7.93;2.70;;;;;;;;;;5069429;28;20505;-65
2022/04/05 08:18:57;;;;;;;8.10;2.80;;;;;;;;;;5059152;28;20089;-64
2022/04/05 08:21:23;;;;;;;6.80;3.20;;;;;;;;;;5068849;28;20502;-65
2022/04/05 08:23:52;;;;;;;9.48;3.85;;;;;;;;;;5070222;28;20044;-64
2022/04/05 08:26:18;;;;;;;10.75;3.85;;;;;;;;;;5068638;28;20060;-64
2022/04/05 08:28:44;;;;;;;9.75;3.70;;;;;;;;;;5069140;28;20192;-65
2022/04/05 08:31:10;;;;;;;11.15;4.20;;;;;;;;;;5069207;28;20060;-65
2022/04/05 08:33:36;;;;;;;8.07;3.33;;;;;;;;;;5069692;28;20490;-65
2022/04/05 08:36:02;;;;;;;9.43;3.78;;;;;;;;;;5068772;28;20181;-66
2022/04/05 08:38:28;;;;;;;8.90;4.18;;;;;;;;;;5069087;28;20044;-66
2022/04/05 08:40:55;;;;;;;9.63;4.07;;;;;;;;;;5067708;28;20041;-66
2022/04/05 08:43:21;;;;;;;10.13;4.28;;;;;;;;;;5069520;28;20051;-66
2022/04/05 08:45:53;;;;;;;9.95;4.35;;;;;;;;;;5070476;28;20048;-65
2022/04/05 08:48:26;;;;;;;10.32;4.45;;;;;;;;;;5069619;28;20425;-65
2022/04/05 08:50:52;;;;;;;11.27;4.78;;;;;;;;;;5070735;28;20062;-65
2022/04/05 08:53:18;;;;;;;11.57;5.07;;;;;;;;;;5069927;28;20044;-65
2022/04/05 08:55:44;;;;;;;10.43;4.45;;;;;;;;;;5069183;28;20064;-65
2022/04/05 08:58:10;;;;;;;9.98;4.35;;;;;;;;;;5069576;28;20120;-65
2022/04/05 09:00:36;;;;;;;10.65;4.80;;;;;;;;;;5070754;28;20036;-65
2022/04/05 09:03:05;;;;;;;10.27;4.63;;;;;;;;;;5070306;28;20080;-65
2022/04/05 09:05:32;;;;;;;10.40;4.80;;;;;;;;;;5068665;28;20404;-66
2022/04/05 09:08:12;;;;;;;10.98;4.85;;;;;;;;;;5069789;28;20845;-66
2022/04/05 09:10:39;;;;;;;10.02;4.95;;;;;;;;;;5068626;28;20052;-66
2022/04/05 09:13:05;;;;;;;7.68;4.43;;;;;;;;;;5070226;28;20047;-65
2022/04/05 09:15:34;;;;;;;9.50;4.68;;;;;;;;;;5068646;28;20095;-66
2022/04/05 09:18:00;;;;;;;;;;;;;;;;;;5069915;28;20072;-65
2022/04/05 09:20:27;;;;;;;8.75;4.35;;;;;;;;;;5070116;28;20350;-65
2022/04/05 09:22:54;;;;;;;9.80;4.40;;;;;;;;;;5069223;28;20189;-65
2022/04/05 09:25:21;;;;;;;9.77;4.75;;;;;;;;;;5069827;28;20052;-65
2022/04/05 09:27:47;;;;;;;9.13;4.22;;;;;;;;;;5069238;28;20110;-65
2022/04/05 09:30:17;;;;;;;9.73;4.88;;;;;;;;;;5070001;28;20036;-66
2022/04/05 09:32:47;;;;;;;9.93;4.45;;;;;;;;;;5069293;28;20040;-65
2022/04/05 09:35:14;;;;;;;9.98;4.38;;;;;;;;;;5049167;28;20068;-65
2022/04/05 09:37:40;;;;;;;10.20;4.20;;;;;;;;;;5049868;28;20044;-66
2022/04/05 09:40:25;;;;;;;8.52;3.90;;;;;;;;;;5068306;28;20071;-66
2022/04/05 09:43:00;;;;;;;8.82;4.40;;;;;;;;;;5069882;28;20402;-65
2022/04/05 09:45:44;;;;;;;9.63;3.92;;;;;;;;;;5069247;28;20056;-65
2022/04/05 09:48:11;;;;;;;10.35;4.00;;;;;;;;;;5069895;28;20052;-65
2022/04/05 09:50:55;;;;;;;9.55;3.78;;;;;;;;;;5069016;28;20041;-66
2022/04/05 09:53:21;;;;;;;8.27;3.63;;;;;;;;;;5069829;28;20143;-65
2022/04/05 09:55:48;;;;;;;8.57;3.40;;;;;;;;;;5069545;28;20044;-66
2022/04/05 09:58:14;;;;;;;8.93;3.30;;;;;;;;;;5069287;28;20048;-65
2022/04/05 10:00:41;;;;;;;8.45;3.13;;;;;;;;;;5068895;28;20124;-66
2022/04/05 10:03:09;;;;;;;8.38;3.60;;;;;;;;;;5069328;28;20063;-67
2022/04/05 10:05:35;;;;;;;7.80;3.38;;;;;;;;;;5069608;28;20120;-66
2022/04/05 10:08:03;;;;;;;7.60;3.42;;;;;;;;;;5069298;28;20049;-66
2022/04/05 10:10:29;;;;;;;6.75;2.97;;;;;;;;;;5069449;28;20048;-66
2022/04/05 10:12:55;;;;;;;9.15;3.45;;;;;;;;;;5069283;28;20450;-66
2022/04/05 10:15:22;;;;;;;7.30;2.80;;;;;;;;;;5068107;28;20052;-65
2022/04/05 10:17:53;;;;;;;6.70;2.70;;;;;;;;;;5068193;28;20036;-66
2022/04/05 10:20:19;;;;;;;6.78;2.65;;;;;;;;;;5068672;28;20124;-65
2022/04/05 10:22:52;;;;;;;7.00;3.22;;;;;;;;;;5068325;28;20402;-66
2022/04/05 10:25:18;;;;;;;9.07;3.40;;;;;;;;;;5068418;28;20052;-65
2022/04/05 10:27:44;;;;;;;7.28;3.20;;;;;;;;;;5068141;28;20055;-65
2022/04/05 10:30:16;;;;;;;8.38;3.70;;;;;;;;;;5068665;28;20097;-64
2022/04/05 10:32:46;;;;;;;8.50;3.60;;;;;;;;;;5067266;28;20048;-65
2022/04/05 10:35:13;;;;;;;7.35;3.63;;;;;;;;;;5068440;28;20053;-65
2022/04/05 10:37:40;;;;;;;7.38;3.20;;;;;;;;;;5068864;28;20049;-66
2022/04/05 10:40:07;;;;;;;7.40;3.05;;;;;;;;;;5050717;28;20045;-66
2022/04/05 10:42:53;;;;;;;7.72;3.20;;;;;;;;;;5069022;28;20197;-67
2022/04/05 10:45:21;;;;;;;7.20;2.90;;;;;;;;;;5067254;28;20044;-64
2022/04/05 10:47:55;;;;;;;8.88;3.40;;;;;;;;;;5068463;28;20059;-65
2022/04/05 10:50:21;;;;;;;7.13;3.08;;;;;;;;;;5068903;28;20117;-66
2022/04/05 10:52:51;;;;;;;7.30;3.33;;;;;;;;;;5069122;28;20416;-67
2022/04/05 10:55:20;;;;;;;6.53;2.88;;;;;;;;;;5069076;28;20044;-66
2022/04/05 10:57:46;;;;;;;7.80;2.92;;;;;;;;;;5068248;28;20055;-66
2022/04/05 11:00:21;;;;;;;7.65;3.00;;;;;;;;;;5067615;28;20106;-66
2022/04/05 11:03:01;;;;;;;6.05;2.78;;;;;;;;;;5048198;28;20080;-67
2022/04/05 11:05:35;;;;;;;8.75;2.90;;;;;;;;;;5048214;28;20059;-66
2022/04/05 11:08:04;;;;;;;6.10;2.90;;;;;;;;;;5048105;28;20049;-66
2022/04/05 11:10:32;;;;;;;4.97;2.53;;;;;;;;;;5048431;28;20144;-67
2022/04/05 11:13:14;;;;;;;5.75;2.55;;;;;;;;;;5048165;28;20041;-67
2022/04/05 11:15:41;;;;;;;6.43;2.70;;;;;;;;;;5061036;28;20055;-66
2022/04/05 11:18:09;;;;;;;6.10;2.45;;;;;;;;;;5067750;28;20159;-67
2022/04/05 11:20:36;;;;;;;6.35;2.38;;;;;;;;;;5067895;28;20188;-66
2022/04/05 11:23:03;;;;;;;5.45;2.47;;;;;;;;;;5067922;28;20052;-65
2022/04/05 11:25:30;;;;;;;7.18;2.53;;;;;;;;;;5068389;28;20040;-66
2022/04/05 11:28:08;;;;;;;9.68;2.40;;;;;;;;;;5067963;28;20048;-66
2022/04/05 11:30:39;;;;;;;8.20;2.80;;;;;;;;;;5068391;28;20041;-66
2022/04/05 11:33:15;;;;;;;7.57;2.10;;;;;;;;;;5068145;28;20086;-66
2022/04/05 11:35:42;;;;;;;5.82;2.08;;;;;;;;;;5067353;28;20459;-66
2022/04/05 11:38:27;;;;;;;9.75;1.92;;;;;;;;;;5067786;28;20048;-66
2022/04/05 11:40:57;;;;;;;6.10;2.35;;;;;;;;;;5071259;28;20080;-66
2022/04/05 11:43:28;;;;;;;8.77;1.90;;;;;;;;;;5071745;28;20048;-66
2022/04/05 11:45:59;;;;;;;3.65;1.60;;;;;;;;;;5072113;28;20127;-66
2022/04/05 11:48:28;;;;;;;6.72;2.08;;;;;;;;;;5071868;28;20048;-65
2022/04/05 11:50:54;;;;;;;;;;;;;;;;;;5071417;28;20049;-66
2022/04/05 11:53:21;;;;;;;6.15;1.90;;;;;;;;;;5072124;28;19920;-66
2022/04/05 11:56:02;;;;;;;5.32;1.50;;;;;;;;;;5071572;28;20105;-66
2022/04/05 11:58:30;;;;;;;5.53;1.65;;;;;;;;;;5071302;28;20040;-66
2022/04/05 12:00:57;;;;;;;5.15;1.90;;;;;;;;;;5071123;28;20076;-66
2022/04/05 12:03:24;;;;;;;4.20;1.48;;;;;;;;;;5071698;28;20443;-66
2022/04/05 12:05:50;;;;;;;4.43;1.58;;;;;;;;;;5071641;28;20074;-65
2022/04/05 12:08:16;;;;;;;4.43;1.50;;;;;;;;;;5070969;28;20056;-66
2022/04/05 12:10:43;;;;;;;4.82;1.20;;;;;;;;;;5070837;28;20484;-66
2022/04/05 12:13:09;;;;;;;5.47;1.73;;;;;;;;;;5071809;28;20040;-65
2022/04/05 12:15:36;;;;;;;4.10;1.58;;;;;;;;;;5070946;28;20567;-65
2022/04/05 12:18:15;;;;;;;2.70;1.30;;;;;;;;;;5071035;28;20051;-65
2022/04/05 12:20:41;;;;;;;3.47;1.20;;;;;;;;;;5071908;28;20059;-65
2022/04/05 12:23:20;;;;;;;2.20;1.17;;;;;;;;;;5071663;28;20045;-65
2022/04/05 12:26:04;;;;;;;2.55;1.13;;;;;;;;;;5071025;28;20053;-65
2022/04/05 12:28:30;;;;;;;2.55;1.27;;;;;;;;;;5071338;28;20049;-64
2022/04/05 12:31:07;;;;;;;2.33;1.00;;;;;;;;;;5071748;28;20866;-65
2022/04/05 12:33:33;;;;;;;3.22;1.20;;;;;;;;;;5070708;28;20047;-65
2022/04/05 12:35:59;;;;;;;4.25;1.48;;;;;;;;;;5071097;28;20060;-65
2022/04/05 12:38:25;;;;;;;4.13;1.40;;;;;;;;;;5071184;28;20045;-66
2022/04/05 12:40:52;;;;;;;2.75;0.95;;;;;;;;;;5070795;28;20060;-65
2022/04/05 12:43:19;;;;;;;2.25;1.00;;;;;;;;;;5071319;28;20514;-65
2022/04/05 12:45:46;;;;;;;4.47;1.38;;;;;;;;;;5070551;28;20340;-65
2022/04/05 12:48:19;;;;;;;3.28;1.30;;;;;;;;;;5070540;28;20565;-65
2022/04/05 12:50:46;;;;;;;4.15;1.40;;;;;;;;;;5069472;28;20036;-65
2022/04/05 12:53:13;;;;;;;4.93;1.38;;;;;;;;;;5070755;28;20426;-66
2022/04/05 12:55:40;;;;;;;1.92;1.00;;;;;;;;;;5070132;28;20052;-65
2022/04/05 12:58:07;;;;;;;1.30;0.82;;;;;;;;;;5070529;28;20113;-66
2022/04/05 13:00:42;;;;;;;3.13;1.08;;;;;;;;;;5070889;28;20052;-65
2022/04/05 13:03:11;;;;;;;2.95;1.25;;;;;;;;;;5070734;28;20494;-66
2022/04/05 13:08:31;;;;;;;2.22;1.20;;;;;;;;;;5070308;28;20087;-65
2022/04/05 13:10:57;;;;;;;3.65;1.00;;;;;;;;;;5053040;28;20045;-66
2022/04/05 13:13:32;;;;;;;3.03;1.10;;;;;;;;;;5070502;28;20076;-66
2022/04/05 13:16:01;;;;;;;3.78;1.00;;;;;;;;;;5070064;28;20044;-66
2022/04/05 13:18:34;;;;;;;5.10;1.15;;;;;;;;;;5069675;28;20891;-66
2022/04/05 13:21:02;;;;;;;6.70;1.10;;;;;;;;;;5070428;28;20045;-66
2022/04/05 13:23:30;;;;;;;4.00;1.35;;;;;;;;;;5069642;28;20056;-66
2022/04/05 13:25:56;;;;;;;3.13;1.13;;;;;;;;;;5070404;28;20363;-66
2022/04/05 13:28:30;;;;;;;4.97;1.10;;;;;;;;;;5070144;28;20048;-66
2022/04/05 13:30:56;;;;;;;2.67;0.85;;;;;;;;;;5069495;28;20102;-66
2022/04/05 13:33:22;;;;;;;4.43;1.05;;;;;;;;;;5069901;28;20518;-66
2022/04/05 13:35:48;;;;;;;3.20;0.90;;;;;;;;;;5069649;28;20087;-66
2022/04/05 13:38:14;;;;;;;3.15;1.08;;;;;;;;;;5069852;28;20064;-65
2022/04/05 13:40:40;;;;;;;2.50;0.85;;;;;;;;;;5068584;28;20041;-66
2022/04/05 13:43:06;;;;;;;2.70;0.90;;;;;;;;;;5069814;28;20048;-66
2022/04/05 13:45:32;;;;;;;1.73;0.73;;;;;;;;;;5069568;28;20041;-66
2022/04/05 13:47:58;;;;;;;1.67;0.80;;;;;;;;;;5069279;28;20040;-66
2022/04/05 13:50:24;;;;;;;3.92;0.90;;;;;;;;;;5069436;28;20051;-66
2022/04/05 13:52:51;;;;;;;1.50;0.63;;;;;;;;;;5067839;28;20049;-66
2022/04/05 13:55:17;;;;;;;2.03;0.80;;;;;;;;;;5069199;28;20465;-66
2022/04/05 13:57:43;;;;;;;1.45;0.70;;;;;;;;;;5069218;28;20049;-67
2022/04/05 14:00:09;;;;;;;4.13;1.48;;;;;;;;;;5068697;28;20051;-67
2022/04/05 14:02:35;;;;;;;6.25;0.90;;;;;;;;;;5068226;28;20036;-65
2022/04/05 14:05:03;;;;;;;2.33;0.90;;;;;;;;;;5069170;28;20056;-65
2022/04/05 14:07:29;;;;;;;3.90;1.00;;;;;;;;;;5068234;28;20055;-65
2022/04/05 14:09:55;;;;;;;6.35;1.20;;;;;;;;;;5069073;28;20198;-64
2022/04/05 14:12:21;;;;;;;3.75;0.90;;;;;;;;;;5069276;28;20045;-64
2022/04/05 14:14:47;;;;;;;5.85;1.23;;;;;;;;;;5068774;28;20041;-65
2022/04/05 14:17:14;;;;;;;2.53;0.70;;;;;;;;;;5068491;28;20048;-64
2022/04/05 14:19:40;;;;;;;1.63;0.73;;;;;;;;;;5068811;28;20379;-64
2022/04/05 14:22:06;;;;;;;5.75;1.13;;;;;;;;;;5069535;28;20052;-63
2022/04/05 14:24:32;;;;;;;7.47;1.38;;;;;;;;;;5068308;28;20659;-66
2022/04/05 14:26:58;;;;;;;8.00;1.10;;;;;;;;;;5066110;28;20487;-67
2022/04/05 14:29:24;;;;;;;6.63;1.23;;;;;;;;;;5068971;28;20123;-66
2022/04/05 14:31:50;;;;;;;5.60;0.70;;;;;;;;;;5068451;28;20045;-66
2022/04/05 14:34:16;;;;;;;6.30;1.08;;;;;;;;;;5066763;28;20088;-67
2022/04/05 14:36:43;;;;;;;1.95;1.00;;;;;;;;;;5064955;28;20045;-66
2022/04/05 14:39:09;;;;;;;2.55;0.90;;;;;;;;;;5068387;28;20052;-66
2022/04/05 14:41:36;;;;;;;3.53;1.02;;;;;;;;;;5068623;28;20055;-66
2022/04/05 14:44:03;;;;;;;2.67;0.82;;;;;;;;;;5068703;28;20051;-66
2022/04/05 14:46:30;;;;;;;3.50;0.95;;;;;;;;;;5067651;28;20062;-67